sensor_id;sensor_type;location;lat;lon;timestamp;temperature;humidity
67769;DHT22;54569;52.018;5.584;2022-12-05T00:00:50;3.90;88.80
67769;DHT22;54569;52.018;5.584;2022-12-05T00:03:15;3.90;88.80
67769;DHT22;54569;52.018;5.584;2022-12-05T00:05:41;3.90;88.80
67769;DHT22;54569;52.018;5.584;2022-12-05T00:08:07;3.90;89.00
67769;DHT22;54569;52.018;5.584;2022-12-05T00:10:35;3.90;89.40
67769;DHT22;54569;52.018;5.584;2022-12-05T00:13:02;3.90;89.20
67769;DHT22;54569;52.018;5.584;2022-12-05T00:15:27;3.90;89.10
67769;DHT22;54569;52.018;5.584;2022-12-05T00:17:53;3.90;90.00
67769;DHT22;54569;52.018;5.584;2022-12-05T00:20:19;3.90;89.50
67769;DHT22;54569;52.018;5.584;2022-12-05T00:22:45;3.90;89.90
67769;DHT22;54569;52.018;5.584;2022-12-05T00:25:11;3.90;89.80
67769;DHT22;54569;52.018;5.584;2022-12-05T00:27:37;3.90;89.70
67769;DHT22;54569;52.018;5.584;2022-12-05T00:30:04;3.90;89.80
67769;DHT22;54569;52.018;5.584;2022-12-05T00:32:30;3.90;89.80
67769;DHT22;54569;52.018;5.584;2022-12-05T00:34:56;3.90;89.60
67769;DHT22;54569;52.018;5.584;2022-12-05T00:37:22;4.00;90.00
67769;DHT22;54569;52.018;5.584;2022-12-05T00:39:48;3.90;89.70
67769;DHT22;54569;52.018;5.584;2022-12-05T00:42:13;4.00;90.00
67769;DHT22;54569;52.018;5.584;2022-12-05T00:44:39;4.00;90.00
67769;DHT22;54569;52.018;5.584;2022-12-05T00:47:04;4.00;90.10
67769;DHT22;54569;52.018;5.584;2022-12-05T00:49:30;4.00;90.10
67769;DHT22;54569;52.018;5.584;2022-12-05T00:51:56;4.00;90.10
67769;DHT22;54569;52.018;5.584;2022-12-05T00:54:21;4.00;90.10
67769;DHT22;54569;52.018;5.584;2022-12-05T00:56:47;4.00;90.00
67769;DHT22;54569;52.018;5.584;2022-12-05T00:59:15;4.00;90.10
67769;DHT22;54569;52.018;5.584;2022-12-05T01:01:42;4.00;90.10
67769;DHT22;54569;52.018;5.584;2022-12-05T01:04:14;4.00;90.10
67769;DHT22;54569;52.018;5.584;2022-12-05T01:06:40;4.00;90.10
67769;DHT22;54569;52.018;5.584;2022-12-05T01:09:06;4.00;90.00
67769;DHT22;54569;52.018;5.584;2022-12-05T01:11:32;4.10;90.20
67769;DHT22;54569;52.018;5.584;2022-12-05T01:13:58;4.00;90.40
67769;DHT22;54569;52.018;5.584;2022-12-05T01:16:27;4.00;90.40
67769;DHT22;54569;52.018;5.584;2022-12-05T01:18:53;4.00;90.30
67769;DHT22;54569;52.018;5.584;2022-12-05T01:21:20;4.00;90.30
67769;DHT22;54569;52.018;5.584;2022-12-05T01:23:45;4.00;90.60
67769;DHT22;54569;52.018;5.584;2022-12-05T01:26:13;4.00;90.40
67769;DHT22;54569;52.018;5.584;2022-12-05T01:28:40;4.10;90.40
67769;DHT22;54569;52.018;5.584;2022-12-05T01:31:08;4.10;90.60
67769;DHT22;54569;52.018;5.584;2022-12-05T01:33:34;4.10;90.50
67769;DHT22;54569;52.018;5.584;2022-12-05T01:36:01;4.10;90.50
67769;DHT22;54569;52.018;5.584;2022-12-05T01:38:27;4.10;90.40
67769;DHT22;54569;52.018;5.584;2022-12-05T01:41:02;4.10;90.40
67769;DHT22;54569;52.018;5.584;2022-12-05T01:43:28;4.10;90.50
67769;DHT22;54569;52.018;5.584;2022-12-05T01:45:54;4.10;90.50
67769;DHT22;54569;52.018;5.584;2022-12-05T01:48:37;4.10;90.50
67769;DHT22;54569;52.018;5.584;2022-12-05T01:51:03;4.10;90.60
67769;DHT22;54569;52.018;5.584;2022-12-05T01:53:29;4.10;90.70
67769;DHT22;54569;52.018;5.584;2022-12-05T01:55:55;4.10;90.60
67769;DHT22;54569;52.018;5.584;2022-12-05T01:58:24;4.10;90.70
67769;DHT22;54569;52.018;5.584;2022-12-05T02:00:52;4.10;90.80
67769;DHT22;54569;52.018;5.584;2022-12-05T02:03:19;4.10;90.90
67769;DHT22;54569;52.018;5.584;2022-12-05T02:05:50;4.10;91.00
67769;DHT22;54569;52.018;5.584;2022-12-05T02:08:19;4.10;91.10
67769;DHT22;54569;52.018;5.584;2022-12-05T02:10:48;4.10;91.00
67769;DHT22;54569;52.018;5.584;2022-12-05T02:27:40;4.10;91.60
67769;DHT22;54569;52.018;5.584;2022-12-05T02:30:16;4.20;91.50
67769;DHT22;54569;52.018;5.584;2022-12-05T02:33:00;4.20;91.30
67769;DHT22;54569;52.018;5.584;2022-12-05T02:38:28;4.20;91.30
67769;DHT22;54569;52.018;5.584;2022-12-05T02:43:59;4.20;91.60
67769;DHT22;54569;52.018;5.584;2022-12-05T02:46:29;4.20;91.30
67769;DHT22;54569;52.018;5.584;2022-12-05T02:49:00;4.20;91.40
67769;DHT22;54569;52.018;5.584;2022-12-05T02:51:31;4.20;91.20
67769;DHT22;54569;52.018;5.584;2022-12-05T02:54:01;4.30;91.20
67769;DHT22;54569;52.018;5.584;2022-12-05T02:56:29;4.30;91.20
67769;DHT22;54569;52.018;5.584;2022-12-05T02:58:57;4.30;91.10
67769;DHT22;54569;52.018;5.584;2022-12-05T03:01:28;4.30;91.00
67769;DHT22;54569;52.018;5.584;2022-12-05T03:03:55;4.30;91.10
67769;DHT22;54569;52.018;5.584;2022-12-05T03:06:28;4.40;91.00
67769;DHT22;54569;52.018;5.584;2022-12-05T03:09:00;4.40;90.90
67769;DHT22;54569;52.018;5.584;2022-12-05T03:11:36;4.40;91.10
67769;DHT22;54569;52.018;5.584;2022-12-05T03:14:05;4.40;91.10
67769;DHT22;54569;52.018;5.584;2022-12-05T03:16:40;4.40;91.10
67769;DHT22;54569;52.018;5.584;2022-12-05T03:19:14;4.40;90.90
67769;DHT22;54569;52.018;5.584;2022-12-05T03:22:18;4.40;91.00
67769;DHT22;54569;52.018;5.584;2022-12-05T03:24:45;4.40;91.40
67769;DHT22;54569;52.018;5.584;2022-12-05T03:27:31;4.50;91.20
67769;DHT22;54569;52.018;5.584;2022-12-05T03:30:07;4.50;91.20
67769;DHT22;54569;52.018;5.584;2022-12-05T03:40:33;4.50;91.50
67769;DHT22;54569;52.018;5.584;2022-12-05T03:46:04;4.50;91.50
67769;DHT22;54569;52.018;5.584;2022-12-05T03:48:44;4.50;91.30
67769;DHT22;54569;52.018;5.584;2022-12-05T03:51:13;4.50;91.20
67769;DHT22;54569;52.018;5.584;2022-12-05T03:53:45;4.50;91.50
67769;DHT22;54569;52.018;5.584;2022-12-05T03:56:16;4.50;91.30
67769;DHT22;54569;52.018;5.584;2022-12-05T03:58:57;4.50;91.50
67769;DHT22;54569;52.018;5.584;2022-12-05T04:01:26;4.60;91.40
67769;DHT22;54569;52.018;5.584;2022-12-05T04:03:59;4.50;91.50
67769;DHT22;54569;52.018;5.584;2022-12-05T04:06:31;4.50;91.70
67769;DHT22;54569;52.018;5.584;2022-12-05T04:09:02;4.60;91.60
67769;DHT22;54569;52.018;5.584;2022-12-05T04:11:32;4.60;91.80
67769;DHT22;54569;52.018;5.584;2022-12-05T04:14:09;4.60;91.70
67769;DHT22;54569;52.018;5.584;2022-12-05T04:17:01;4.50;91.70
67769;DHT22;54569;52.018;5.584;2022-12-05T04:19:46;4.60;92.00
67769;DHT22;54569;52.018;5.584;2022-12-05T04:22:47;4.60;91.70
67769;DHT22;54569;52.018;5.584;2022-12-05T04:25:14;4.60;91.60
67769;DHT22;54569;52.018;5.584;2022-12-05T04:28:25;4.60;91.50
67769;DHT22;54569;52.018;5.584;2022-12-05T04:31:15;4.60;91.80
67769;DHT22;54569;52.018;5.584;2022-12-05T04:36:12;4.60;91.70
67769;DHT22;54569;52.018;5.584;2022-12-05T04:41:13;4.60;91.70
67769;DHT22;54569;52.018;5.584;2022-12-05T04:43:42;4.70;91.60
67769;DHT22;54569;52.018;5.584;2022-12-05T04:46:10;4.70;91.60
67769;DHT22;54569;52.018;5.584;2022-12-05T04:48:37;4.60;91.50
67769;DHT22;54569;52.018;5.584;2022-12-05T04:51:06;4.60;91.60
67769;DHT22;54569;52.018;5.584;2022-12-05T04:53:34;4.60;91.70
67769;DHT22;54569;52.018;5.584;2022-12-05T04:56:02;4.70;91.60
67769;DHT22;54569;52.018;5.584;2022-12-05T04:58:29;4.70;91.60
67769;DHT22;54569;52.018;5.584;2022-12-05T05:01:03;4.70;91.80
67769;DHT22;54569;52.018;5.584;2022-12-05T05:03:58;4.70;91.80
67769;DHT22;54569;52.018;5.584;2022-12-05T05:06:26;4.70;92.00
67769;DHT22;54569;52.018;5.584;2022-12-05T05:08:55;4.70;91.70
67769;DHT22;54569;52.018;5.584;2022-12-05T05:11:26;4.70;91.80
67769;DHT22;54569;52.018;5.584;2022-12-05T05:13:53;4.70;91.80
67769;DHT22;54569;52.018;5.584;2022-12-05T05:16:24;4.70;91.70
67769;DHT22;54569;52.018;5.584;2022-12-05T05:18:50;4.70;91.80
67769;DHT22;54569;52.018;5.584;2022-12-05T05:23:46;4.70;92.10
67769;DHT22;54569;52.018;5.584;2022-12-05T05:26:12;4.70;92.00
67769;DHT22;54569;52.018;5.584;2022-12-05T05:28:37;4.70;92.00
67769;DHT22;54569;52.018;5.584;2022-12-05T05:31:04;4.70;92.00
67769;DHT22;54569;52.018;5.584;2022-12-05T05:33:31;4.70;91.90
67769;DHT22;54569;52.018;5.584;2022-12-05T05:36:10;4.70;91.90
67769;DHT22;54569;52.018;5.584;2022-12-05T05:38:48;4.80;92.00
67769;DHT22;54569;52.018;5.584;2022-12-05T05:41:24;4.80;92.20
67769;DHT22;54569;52.018;5.584;2022-12-05T05:43:50;4.80;92.00
67769;DHT22;54569;52.018;5.584;2022-12-05T05:46:18;4.80;91.90
67769;DHT22;54569;52.018;5.584;2022-12-05T05:48:45;4.80;92.00
67769;DHT22;54569;52.018;5.584;2022-12-05T05:51:14;4.80;92.20
67769;DHT22;54569;52.018;5.584;2022-12-05T05:53:41;4.80;92.10
67769;DHT22;54569;52.018;5.584;2022-12-05T05:56:12;4.80;91.90
67769;DHT22;54569;52.018;5.584;2022-12-05T05:58:39;4.80;92.00
67769;DHT22;54569;52.018;5.584;2022-12-05T06:01:14;4.80;92.10
67769;DHT22;54569;52.018;5.584;2022-12-05T06:03:40;4.80;92.20
67769;DHT22;54569;52.018;5.584;2022-12-05T06:06:09;4.90;92.10
67769;DHT22;54569;52.018;5.584;2022-12-05T06:08:37;4.90;92.20
67769;DHT22;54569;52.018;5.584;2022-12-05T06:11:07;4.90;92.10
67769;DHT22;54569;52.018;5.584;2022-12-05T06:13:33;4.90;92.00
67769;DHT22;54569;52.018;5.584;2022-12-05T06:15:59;4.90;92.00
67769;DHT22;54569;52.018;5.584;2022-12-05T06:18:24;4.90;92.00
67769;DHT22;54569;52.018;5.584;2022-12-05T06:20:55;4.90;92.00
67769;DHT22;54569;52.018;5.584;2022-12-05T06:23:21;4.90;92.00
67769;DHT22;54569;52.018;5.584;2022-12-05T06:25:51;5.00;92.00
67769;DHT22;54569;52.018;5.584;2022-12-05T06:28:18;5.00;92.00
67769;DHT22;54569;52.018;5.584;2022-12-05T06:30:44;5.00;92.00
67769;DHT22;54569;52.018;5.584;2022-12-05T06:33:10;5.00;92.10
67769;DHT22;54569;52.018;5.584;2022-12-05T06:35:37;5.00;92.30
67769;DHT22;54569;52.018;5.584;2022-12-05T06:38:03;5.00;92.20
67769;DHT22;54569;52.018;5.584;2022-12-05T06:40:29;5.00;92.10
67769;DHT22;54569;52.018;5.584;2022-12-05T06:42:54;5.00;92.10
67769;DHT22;54569;52.018;5.584;2022-12-05T06:45:20;5.00;92.10
67769;DHT22;54569;52.018;5.584;2022-12-05T06:47:46;5.10;92.30
67769;DHT22;54569;52.018;5.584;2022-12-05T06:50:12;5.00;92.50
67769;DHT22;54569;52.018;5.584;2022-12-05T06:52:37;5.00;92.20
67769;DHT22;54569;52.018;5.584;2022-12-05T06:55:03;5.10;92.20
67769;DHT22;54569;52.018;5.584;2022-12-05T06:57:30;5.10;92.30
67769;DHT22;54569;52.018;5.584;2022-12-05T06:59:56;5.10;92.20
67769;DHT22;54569;52.018;5.584;2022-12-05T07:02:40;5.10;92.40
67769;DHT22;54569;52.018;5.584;2022-12-05T07:05:07;5.10;92.40
67769;DHT22;54569;52.018;5.584;2022-12-05T07:07:34;5.10;92.40
67769;DHT22;54569;52.018;5.584;2022-12-05T07:10:00;5.10;92.40
67769;DHT22;54569;52.018;5.584;2022-12-05T07:12:26;5.10;92.30
67769;DHT22;54569;52.018;5.584;2022-12-05T07:14:52;5.10;92.30
67769;DHT22;54569;52.018;5.584;2022-12-05T07:17:18;5.10;92.30
67769;DHT22;54569;52.018;5.584;2022-12-05T07:19:46;5.10;92.40
67769;DHT22;54569;52.018;5.584;2022-12-05T07:22:13;5.10;92.40
67769;DHT22;54569;52.018;5.584;2022-12-05T07:24:38;5.20;92.30
67769;DHT22;54569;52.018;5.584;2022-12-05T07:27:04;5.20;92.20
67769;DHT22;54569;52.018;5.584;2022-12-05T07:29:30;5.20;92.30
67769;DHT22;54569;52.018;5.584;2022-12-05T07:31:56;5.20;92.20
67769;DHT22;54569;52.018;5.584;2022-12-05T07:34:22;5.20;92.30
67769;DHT22;54569;52.018;5.584;2022-12-05T07:36:47;5.20;92.30
67769;DHT22;54569;52.018;5.584;2022-12-05T07:39:13;5.20;92.20
67769;DHT22;54569;52.018;5.584;2022-12-05T07:41:38;5.20;92.30
67769;DHT22;54569;52.018;5.584;2022-12-05T07:44:10;5.20;92.30
67769;DHT22;54569;52.018;5.584;2022-12-05T07:46:36;5.20;92.20
67769;DHT22;54569;52.018;5.584;2022-12-05T07:49:02;5.30;92.30
67769;DHT22;54569;52.018;5.584;2022-12-05T07:51:28;5.30;92.20
67769;DHT22;54569;52.018;5.584;2022-12-05T07:53:54;5.30;92.30
67769;DHT22;54569;52.018;5.584;2022-12-05T07:56:20;5.30;92.30
67769;DHT22;54569;52.018;5.584;2022-12-05T07:58:48;5.30;92.30
67769;DHT22;54569;52.018;5.584;2022-12-05T08:01:15;5.30;92.30
67769;DHT22;54569;52.018;5.584;2022-12-05T08:03:41;5.30;92.30
67769;DHT22;54569;52.018;5.584;2022-12-05T08:06:10;5.30;92.20
67769;DHT22;54569;52.018;5.584;2022-12-05T08:08:36;5.30;92.40
67769;DHT22;54569;52.018;5.584;2022-12-05T08:11:04;5.30;92.40
67769;DHT22;54569;52.018;5.584;2022-12-05T08:13:30;5.30;92.40
67769;DHT22;54569;52.018;5.584;2022-12-05T08:16:00;5.40;92.40
67769;DHT22;54569;52.018;5.584;2022-12-05T08:18:26;5.40;92.40
67769;DHT22;54569;52.018;5.584;2022-12-05T08:20:51;5.40;92.50
67769;DHT22;54569;52.018;5.584;2022-12-05T08:23:17;5.40;92.40
67769;DHT22;54569;52.018;5.584;2022-12-05T08:25:42;5.40;92.40
67769;DHT22;54569;52.018;5.584;2022-12-05T08:28:08;5.50;92.40
67769;DHT22;54569;52.018;5.584;2022-12-05T08:30:34;5.50;92.40
67769;DHT22;54569;52.018;5.584;2022-12-05T08:32:59;5.50;92.40
67769;DHT22;54569;52.018;5.584;2022-12-05T08:35:25;5.50;92.40
67769;DHT22;54569;52.018;5.584;2022-12-05T08:37:51;5.50;92.50
67769;DHT22;54569;52.018;5.584;2022-12-05T08:40:17;5.50;92.50
67769;DHT22;54569;52.018;5.584;2022-12-05T08:42:43;5.50;92.50
67769;DHT22;54569;52.018;5.584;2022-12-05T08:45:08;5.50;92.50
67769;DHT22;54569;52.018;5.584;2022-12-05T08:47:35;5.50;92.50
67769;DHT22;54569;52.018;5.584;2022-12-05T08:50:01;5.50;92.50
67769;DHT22;54569;52.018;5.584;2022-12-05T08:52:26;5.60;92.70
67769;DHT22;54569;52.018;5.584;2022-12-05T08:54:52;5.50;92.70
67769;DHT22;54569;52.018;5.584;2022-12-05T08:57:17;5.50;92.80
67769;DHT22;54569;52.018;5.584;2022-12-05T08:59:43;5.50;92.70
67769;DHT22;54569;52.018;5.584;2022-12-05T09:02:10;5.50;92.70
67769;DHT22;54569;52.018;5.584;2022-12-05T09:04:35;5.50;92.80
67769;DHT22;54569;52.018;5.584;2022-12-05T09:07:01;5.60;92.80
67769;DHT22;54569;52.018;5.584;2022-12-05T09:09:28;5.50;92.70
67769;DHT22;54569;52.018;5.584;2022-12-05T09:11:54;5.60;92.80
67769;DHT22;54569;52.018;5.584;2022-12-05T09:14:20;5.60;92.70
67769;DHT22;54569;52.018;5.584;2022-12-05T09:16:46;5.60;92.80
67769;DHT22;54569;52.018;5.584;2022-12-05T09:19:15;5.60;92.70
67769;DHT22;54569;52.018;5.584;2022-12-05T09:21:41;5.60;92.80
67769;DHT22;54569;52.018;5.584;2022-12-05T09:24:09;5.60;92.70
67769;DHT22;54569;52.018;5.584;2022-12-05T09:26:38;5.60;92.70
67769;DHT22;54569;52.018;5.584;2022-12-05T09:29:04;5.60;92.70
67769;DHT22;54569;52.018;5.584;2022-12-05T09:31:30;5.70;92.70
67769;DHT22;54569;52.018;5.584;2022-12-05T09:33:55;5.70;92.70
67769;DHT22;54569;52.018;5.584;2022-12-05T09:36:26;5.70;92.90
67769;DHT22;54569;52.018;5.584;2022-12-05T09:38:53;5.70;92.70
67769;DHT22;54569;52.018;5.584;2022-12-05T09:41:44;5.70;92.70
67769;DHT22;54569;52.018;5.584;2022-12-05T09:47:51;5.80;92.80
67769;DHT22;54569;52.018;5.584;2022-12-05T09:53:29;5.80;92.70
67769;DHT22;54569;52.018;5.584;2022-12-05T09:56:03;5.80;92.60
67769;DHT22;54569;52.018;5.584;2022-12-05T09:58:42;5.90;92.60
67769;DHT22;54569;52.018;5.584;2022-12-05T10:01:35;5.90;93.40
67769;DHT22;54569;52.018;5.584;2022-12-05T10:04:38;5.90;92.80
67769;DHT22;54569;52.018;5.584;2022-12-05T10:15:48;5.90;92.60
67769;DHT22;54569;52.018;5.584;2022-12-05T10:18:31;5.90;92.50
67769;DHT22;54569;52.018;5.584;2022-12-05T10:23:55;5.90;92.60
67769;DHT22;54569;52.018;5.584;2022-12-05T10:26:22;6.00;92.60
67769;DHT22;54569;52.018;5.584;2022-12-05T10:29:13;5.90;92.60
67769;DHT22;54569;52.018;5.584;2022-12-05T10:31:44;6.00;92.70
67769;DHT22;54569;52.018;5.584;2022-12-05T10:34:17;6.00;92.60
67769;DHT22;54569;52.018;5.584;2022-12-05T10:37:14;6.00;92.50
67769;DHT22;54569;52.018;5.584;2022-12-05T10:39:41;6.10;92.50
67769;DHT22;54569;52.018;5.584;2022-12-05T10:42:13;6.10;92.50
67769;DHT22;54569;52.018;5.584;2022-12-05T10:44:40;6.10;92.50
67769;DHT22;54569;52.018;5.584;2022-12-05T10:47:06;6.10;92.50
67769;DHT22;54569;52.018;5.584;2022-12-05T10:49:33;6.10;92.50
67769;DHT22;54569;52.018;5.584;2022-12-05T10:51:59;6.10;92.50
67769;DHT22;54569;52.018;5.584;2022-12-05T10:54:29;6.10;92.50
67769;DHT22;54569;52.018;5.584;2022-12-05T10:56:55;6.10;92.60
67769;DHT22;54569;52.018;5.584;2022-12-05T10:59:23;6.10;92.60
67769;DHT22;54569;52.018;5.584;2022-12-05T11:01:52;6.10;92.60
67769;DHT22;54569;52.018;5.584;2022-12-05T11:04:30;6.10;92.60
67769;DHT22;54569;52.018;5.584;2022-12-05T11:06:59;6.10;92.60
67769;DHT22;54569;52.018;5.584;2022-12-05T11:09:36;6.10;92.60
67769;DHT22;54569;52.018;5.584;2022-12-05T11:12:17;6.10;92.60
67769;DHT22;54569;52.018;5.584;2022-12-05T11:17:47;6.10;92.90
67769;DHT22;54569;52.018;5.584;2022-12-05T11:22:50;6.20;92.70
67769;DHT22;54569;52.018;5.584;2022-12-05T11:27:50;6.20;92.80
67769;DHT22;54569;52.018;5.584;2022-12-05T11:30:23;6.20;92.80
67769;DHT22;54569;52.018;5.584;2022-12-05T11:32:49;6.20;92.80
67769;DHT22;54569;52.018;5.584;2022-12-05T11:37:57;6.20;92.80
67769;DHT22;54569;52.018;5.584;2022-12-05T11:40:34;6.20;92.80
67769;DHT22;54569;52.018;5.584;2022-12-05T11:43:28;6.20;92.80
67769;DHT22;54569;52.018;5.584;2022-12-05T11:49:17;6.30;92.90
67769;DHT22;54569;52.018;5.584;2022-12-05T11:54:13;6.30;92.90
67769;DHT22;54569;52.018;5.584;2022-12-05T11:56:56;6.30;92.90
67769;DHT22;54569;52.018;5.584;2022-12-05T12:07:45;6.40;92.90
67769;DHT22;54569;52.018;5.584;2022-12-05T12:10:51;6.40;92.90
67769;DHT22;54569;52.018;5.584;2022-12-05T12:27:08;6.50;92.90
67769;DHT22;54569;52.018;5.584;2022-12-05T12:30:05;6.50;92.90
67769;DHT22;54569;52.018;5.584;2022-12-05T12:32:42;6.50;93.00
67769;DHT22;54569;52.018;5.584;2022-12-05T12:35:28;6.60;92.90
67769;DHT22;54569;52.018;5.584;2022-12-05T12:38:16;6.60;93.00
67769;DHT22;54569;52.018;5.584;2022-12-05T12:40:53;6.60;93.10
67769;DHT22;54569;52.018;5.584;2022-12-05T12:43:31;6.60;93.00
67769;DHT22;54569;52.018;5.584;2022-12-05T12:46:18;6.70;92.90
67769;DHT22;54569;52.018;5.584;2022-12-05T12:51:40;6.70;93.00
67769;DHT22;54569;52.018;5.584;2022-12-05T12:59:53;6.70;93.00
67769;DHT22;54569;52.018;5.584;2022-12-05T13:02:28;6.70;93.10
67769;DHT22;54569;52.018;5.584;2022-12-05T13:05:05;6.70;93.00
67769;DHT22;54569;52.018;5.584;2022-12-05T13:07:40;6.70;93.00
67769;DHT22;54569;52.018;5.584;2022-12-05T13:10:36;6.70;93.10
67769;DHT22;54569;52.018;5.584;2022-12-05T13:13:04;6.70;93.10
67769;DHT22;54569;52.018;5.584;2022-12-05T13:15:35;6.70;93.10
67769;DHT22;54569;52.018;5.584;2022-12-05T13:18:10;6.70;93.10
67769;DHT22;54569;52.018;5.584;2022-12-05T13:20:38;6.70;93.10
67769;DHT22;54569;52.018;5.584;2022-12-05T13:23:05;6.70;93.00
67769;DHT22;54569;52.018;5.584;2022-12-05T13:25:35;6.70;93.00
67769;DHT22;54569;52.018;5.584;2022-12-05T13:28:05;6.70;93.10
67769;DHT22;54569;52.018;5.584;2022-12-05T13:30:33;6.70;93.20
67769;DHT22;54569;52.018;5.584;2022-12-05T13:33:28;6.70;93.20
67769;DHT22;54569;52.018;5.584;2022-12-05T13:39:04;6.70;93.30
67769;DHT22;54569;52.018;5.584;2022-12-05T13:41:52;6.70;93.30
67769;DHT22;54569;52.018;5.584;2022-12-05T13:44:43;6.60;93.20
67769;DHT22;54569;52.018;5.584;2022-12-05T13:52:52;6.70;93.30
67769;DHT22;54569;52.018;5.584;2022-12-05T13:57:50;6.60;93.30
67769;DHT22;54569;52.018;5.584;2022-12-05T14:07:49;6.60;93.40
67769;DHT22;54569;52.018;5.584;2022-12-05T14:15:52;6.50;93.80
67769;DHT22;54569;52.018;5.584;2022-12-05T14:18:23;6.50;93.40
67769;DHT22;54569;52.018;5.584;2022-12-05T14:21:35;6.50;93.40
67769;DHT22;54569;52.018;5.584;2022-12-05T14:24:05;6.50;93.50
67769;DHT22;54569;52.018;5.584;2022-12-05T14:32:27;6.50;93.80
67769;DHT22;54569;52.018;5.584;2022-12-05T14:37:32;6.40;93.50
67769;DHT22;54569;52.018;5.584;2022-12-05T14:40:00;6.40;93.60
67769;DHT22;54569;52.018;5.584;2022-12-05T14:42:40;6.40;93.60
67769;DHT22;54569;52.018;5.584;2022-12-05T14:47:58;6.40;93.60
67769;DHT22;54569;52.018;5.584;2022-12-05T14:50:47;6.40;93.60
67769;DHT22;54569;52.018;5.584;2022-12-05T14:55:42;6.40;93.60
67769;DHT22;54569;52.018;5.584;2022-12-05T15:01:06;6.40;93.70
67769;DHT22;54569;52.018;5.584;2022-12-05T15:03:39;6.30;93.60
67769;DHT22;54569;52.018;5.584;2022-12-05T15:06:11;6.40;93.60
67769;DHT22;54569;52.018;5.584;2022-12-05T15:08:45;6.40;93.60
67769;DHT22;54569;52.018;5.584;2022-12-05T15:11:17;6.40;93.60
67769;DHT22;54569;52.018;5.584;2022-12-05T15:13:59;6.40;93.90
67769;DHT22;54569;52.018;5.584;2022-12-05T15:16:26;6.40;93.60
67769;DHT22;54569;52.018;5.584;2022-12-05T15:18:59;6.40;93.60
67769;DHT22;54569;52.018;5.584;2022-12-05T15:21:36;6.40;93.70
67769;DHT22;54569;52.018;5.584;2022-12-05T15:24:17;6.30;93.70
67769;DHT22;54569;52.018;5.584;2022-12-05T15:26:49;6.30;93.70
67769;DHT22;54569;52.018;5.584;2022-12-05T15:32:13;6.30;93.80
67769;DHT22;54569;52.018;5.584;2022-12-05T15:34:44;6.30;93.90
67769;DHT22;54569;52.018;5.584;2022-12-05T15:37:17;6.20;93.80
67769;DHT22;54569;52.018;5.584;2022-12-05T15:39:57;6.30;93.80
67769;DHT22;54569;52.018;5.584;2022-12-05T15:45:16;6.30;93.90
67769;DHT22;54569;52.018;5.584;2022-12-05T15:47:55;6.30;93.90
67769;DHT22;54569;52.018;5.584;2022-12-05T15:50:43;6.30;93.80
67769;DHT22;54569;52.018;5.584;2022-12-05T15:53:36;6.30;93.90
67769;DHT22;54569;52.018;5.584;2022-12-05T15:56:28;6.20;93.80
67769;DHT22;54569;52.018;5.584;2022-12-05T15:59:10;6.20;93.90
67769;DHT22;54569;52.018;5.584;2022-12-05T16:01:51;6.20;93.90
67769;DHT22;54569;52.018;5.584;2022-12-05T16:04:41;6.20;93.90
67769;DHT22;54569;52.018;5.584;2022-12-05T16:07:10;6.30;93.90
67769;DHT22;54569;52.018;5.584;2022-12-05T16:09:41;6.20;93.90
67769;DHT22;54569;52.018;5.584;2022-12-05T16:12:38;6.30;93.90
67769;DHT22;54569;52.018;5.584;2022-12-05T16:15:17;6.30;94.00
67769;DHT22;54569;52.018;5.584;2022-12-05T16:17:52;6.30;93.90
67769;DHT22;54569;52.018;5.584;2022-12-05T16:20:22;6.30;93.80
67769;DHT22;54569;52.018;5.584;2022-12-05T16:22:51;6.30;94.40
67769;DHT22;54569;52.018;5.584;2022-12-05T16:25:26;6.30;93.90
67769;DHT22;54569;52.018;5.584;2022-12-05T16:27:57;6.30;93.90
67769;DHT22;54569;52.018;5.584;2022-12-05T16:30:23;6.30;93.90
67769;DHT22;54569;52.018;5.584;2022-12-05T16:33:14;6.30;93.80
67769;DHT22;54569;52.018;5.584;2022-12-05T16:35:45;6.30;93.80
67769;DHT22;54569;52.018;5.584;2022-12-05T16:38:25;6.30;93.80
67769;DHT22;54569;52.018;5.584;2022-12-05T16:45:44;6.30;93.80
67769;DHT22;54569;52.018;5.584;2022-12-05T16:48:30;6.40;93.80
67769;DHT22;54569;52.018;5.584;2022-12-05T16:51:19;6.40;93.90
67769;DHT22;54569;52.018;5.584;2022-12-05T16:53:51;6.40;93.90
67769;DHT22;54569;52.018;5.584;2022-12-05T16:56:26;6.30;93.90
67769;DHT22;54569;52.018;5.584;2022-12-05T16:58:54;6.40;93.90
67769;DHT22;54569;52.018;5.584;2022-12-05T17:01:23;6.40;93.90
67769;DHT22;54569;52.018;5.584;2022-12-05T17:03:49;6.40;93.90
67769;DHT22;54569;52.018;5.584;2022-12-05T17:06:15;6.40;93.90
67769;DHT22;54569;52.018;5.584;2022-12-05T17:08:42;6.40;93.90
67769;DHT22;54569;52.018;5.584;2022-12-05T17:11:16;6.40;93.80
67769;DHT22;54569;52.018;5.584;2022-12-05T17:13:45;6.40;93.80
67769;DHT22;54569;52.018;5.584;2022-12-05T17:16:13;6.40;93.80
67769;DHT22;54569;52.018;5.584;2022-12-05T17:18:39;6.40;93.90
67769;DHT22;54569;52.018;5.584;2022-12-05T17:21:05;6.40;93.90
67769;DHT22;54569;52.018;5.584;2022-12-05T17:23:31;6.30;93.90
67769;DHT22;54569;52.018;5.584;2022-12-05T17:25:57;6.30;93.90
67769;DHT22;54569;52.018;5.584;2022-12-05T17:28:24;6.30;94.00
67769;DHT22;54569;52.018;5.584;2022-12-05T17:30:49;6.30;94.00
67769;DHT22;54569;52.018;5.584;2022-12-05T17:33:17;6.30;94.00
67769;DHT22;54569;52.018;5.584;2022-12-05T17:35:43;6.30;94.00
67769;DHT22;54569;52.018;5.584;2022-12-05T17:38:09;6.30;94.00
67769;DHT22;54569;52.018;5.584;2022-12-05T17:40:38;6.30;94.00
67769;DHT22;54569;52.018;5.584;2022-12-05T17:43:04;6.30;94.00
67769;DHT22;54569;52.018;5.584;2022-12-05T17:45:31;6.40;94.00
67769;DHT22;54569;52.018;5.584;2022-12-05T17:47:57;6.40;94.30
67769;DHT22;54569;52.018;5.584;2022-12-05T17:50:24;6.30;94.00
67769;DHT22;54569;52.018;5.584;2022-12-05T17:52:53;6.40;94.00
67769;DHT22;54569;52.018;5.584;2022-12-05T17:57:47;6.40;94.00
67769;DHT22;54569;52.018;5.584;2022-12-05T18:00:14;6.30;94.00
67769;DHT22;54569;52.018;5.584;2022-12-05T18:02:41;6.40;94.00
67769;DHT22;54569;52.018;5.584;2022-12-05T18:05:08;6.40;94.00
67769;DHT22;54569;52.018;5.584;2022-12-05T18:07:34;6.40;94.00
67769;DHT22;54569;52.018;5.584;2022-12-05T18:10:00;6.40;93.90
67769;DHT22;54569;52.018;5.584;2022-12-05T18:12:26;6.40;94.00
67769;DHT22;54569;52.018;5.584;2022-12-05T18:14:52;6.40;94.10
67769;DHT22;54569;52.018;5.584;2022-12-05T18:17:17;6.40;94.00
67769;DHT22;54569;52.018;5.584;2022-12-05T18:19:43;6.30;94.00
67769;DHT22;54569;52.018;5.584;2022-12-05T18:22:09;6.40;94.00
67769;DHT22;54569;52.018;5.584;2022-12-05T18:24:34;6.40;94.00
67769;DHT22;54569;52.018;5.584;2022-12-05T18:27:00;6.40;94.00
67769;DHT22;54569;52.018;5.584;2022-12-05T18:29:26;6.40;94.00
67769;DHT22;54569;52.018;5.584;2022-12-05T18:31:51;6.40;94.00
67769;DHT22;54569;52.018;5.584;2022-12-05T18:34:17;6.40;94.00
67769;DHT22;54569;52.018;5.584;2022-12-05T18:36:43;6.40;94.00
67769;DHT22;54569;52.018;5.584;2022-12-05T18:39:11;6.40;93.90
67769;DHT22;54569;52.018;5.584;2022-12-05T18:41:39;6.40;94.00
67769;DHT22;54569;52.018;5.584;2022-12-05T18:44:06;6.40;94.00
67769;DHT22;54569;52.018;5.584;2022-12-05T18:46:33;6.40;94.00